Time;durP1;ratioP1;P1;durP2;ratioP2;P2;SDS_P1;SDS_P2;PMS_P1;PMS_P2;Temp;Humidity;BMP_temperature;BMP_pressure;BME280_temperature;BME280_humidity;BME280_pressure;Samples;Min_cycle;Max_cycle;Signal;HPM_P1;HPM_P2
2021/11/01 00:01:43;;;;;;;1999.90;999.90;;;1.60;99.90;;;;;;5118815;27;20016;-77
2021/11/01 00:04:09;;;;;;;1999.90;999.90;;;1.50;99.90;;;;;;5116827;28;20039;-76
2021/11/01 00:06:35;;;;;;;1999.90;999.90;;;1.60;99.90;;;;;;5115566;28;20031;-78
2021/11/01 00:09:02;;;;;;;1999.90;999.90;;;1.60;99.90;;;;;;5097232;28;20040;-77
2021/11/01 00:11:28;;;;;;;1999.90;999.90;;;1.60;99.90;;;;;;5115528;28;20027;-75
2021/11/01 00:13:53;;;;;;;1999.90;999.90;;;1.50;99.90;;;;;;5115429;28;20028;-75
2021/11/01 00:16:19;;;;;;;1999.90;999.90;;;1.60;99.90;;;;;;5097154;28;20027;-76
2021/11/01 00:18:45;;;;;;;1999.90;999.90;;;1.50;99.90;;;;;;5115209;28;20108;-77
2021/11/01 00:21:10;;;;;;;1999.90;999.90;;;1.50;99.90;;;;;;5115246;28;20031;-78
2021/11/01 00:23:36;;;;;;;1999.90;999.90;;;1.60;99.90;;;;;;5096919;28;20031;-76
2021/11/01 00:26:02;;;;;;;1999.90;999.90;;;1.70;99.90;;;;;;5096828;28;20015;-76
2021/11/01 00:28:28;;;;;;;1999.90;999.90;;;1.50;99.90;;;;;;5096640;28;20402;-75
2021/11/01 00:30:57;;;;;;;1999.90;999.90;;;1.60;99.90;;;;;;5096795;28;20066;-77
2021/11/01 00:33:25;;;;;;;1999.90;999.90;;;1.50;99.90;;;;;;5115114;28;20028;-75
2021/11/01 00:35:51;;;;;;;1999.90;999.90;;;1.60;99.90;;;;;;5096573;28;20035;-75
2021/11/01 00:38:17;;;;;;;1999.90;999.90;;;1.50;99.90;;;;;;5114902;28;20016;-76
2021/11/01 00:40:43;;;;;;;1999.90;999.90;;;1.40;99.90;;;;;;5114890;28;20034;-77
2021/11/01 00:43:09;;;;;;;1999.90;999.90;;;1.50;99.90;;;;;;5114841;28;20028;-75
2021/11/01 00:45:35;;;;;;;1999.90;999.90;;;1.50;99.90;;;;;;5114869;28;20475;-77
2021/11/01 00:48:02;;;;;;;1999.90;999.90;;;1.50;99.90;;;;;;5114676;27;20024;-76
2021/11/01 00:50:28;;;;;;;1999.90;999.90;;;1.50;99.90;;;;;;5096210;28;20047;-76
2021/11/01 00:52:55;;;;;;;1999.90;999.90;;;1.50;99.90;;;;;;5096307;28;20062;-76
2021/11/01 00:55:32;;;;;;;1999.90;999.90;;;1.60;99.90;;;;;;5114768;28;20114;-77
2021/11/01 00:57:58;;;;;;;1999.90;999.90;;;1.50;99.90;;;;;;5096161;28;20115;-77
2021/11/01 01:00:24;;;;;;;1999.90;999.90;;;1.50;99.90;;;;;;5096280;28;20123;-77
2021/11/01 01:02:51;;;;;;;1999.90;999.90;;;1.50;99.90;;;;;;5114687;28;20046;-76
2021/11/01 01:05:17;;;;;;;1999.90;999.90;;;1.60;99.90;;;;;;5095923;28;20034;-75
2021/11/01 01:07:43;;;;;;;1999.90;999.90;;;1.60;99.90;;;;;;5114474;28;20106;-77
2021/11/01 01:10:09;;;;;;;1999.90;999.90;;;1.70;99.90;;;;;;5114352;28;20115;-76
2021/11/01 01:12:34;;;;;;;1999.90;999.90;;;1.70;99.90;;;;;;5114407;28;20458;-76
2021/11/01 01:15:04;;;;;;;1999.90;999.90;;;1.70;99.90;;;;;;5114177;28;20027;-76
2021/11/01 01:17:31;;;;;;;1999.90;999.90;;;1.70;99.90;;;;;;5114118;28;20020;-77
2021/11/01 01:20:03;;;;;;;1999.90;999.90;;;1.70;99.90;;;;;;5114316;28;20061;-78
2021/11/01 01:22:29;;;;;;;1999.90;999.90;;;1.80;99.90;;;;;;5095975;28;20031;-76
2021/11/01 01:25:14;;;;;;;1999.90;999.90;;;1.80;99.90;;;;;;5114081;28;20427;-76
2021/11/01 01:27:55;;;;;;;1999.90;999.90;;;1.70;99.90;;;;;;5111183;28;20042;-76
2021/11/01 01:30:22;;;;;;;1999.90;999.90;;;1.70;99.90;;;;;;5113949;28;20038;-76
2021/11/01 01:32:48;;;;;;;1999.90;999.90;;;1.80;99.90;;;;;;5114054;28;20459;-77
2021/11/01 01:35:15;;;;;;;1999.90;999.90;;;1.80;99.90;;;;;;5113834;28;20031;-76
2021/11/01 01:37:42;;;;;;;1999.90;999.90;;;1.80;99.90;;;;;;5113721;28;20020;-76
2021/11/01 01:40:09;;;;;;;1999.90;999.90;;;1.80;99.90;;;;;;5095296;28;20028;-77
2021/11/01 01:42:36;;;;;;;1999.90;999.90;;;1.80;99.90;;;;;;5095301;28;20047;-77
2021/11/01 01:45:07;;;;;;;1999.90;999.90;;;1.90;99.90;;;;;;5095296;28;20058;-78
2021/11/01 01:47:33;;;;;;;1999.90;999.90;;;1.80;99.90;;;;;;5095356;28;20026;-77
2021/11/01 01:49:59;;;;;;;1999.90;999.90;;;1.80;99.90;;;;;;5113323;28;20113;-75
2021/11/01 01:52:25;;;;;;;1999.90;999.90;;;1.90;99.90;;;;;;5113749;28;20035;-78
2021/11/01 01:54:51;;;;;;;1999.90;999.90;;;1.90;99.90;;;;;;5095185;28;20063;-78
2021/11/01 01:57:17;;;;;;;1999.90;999.90;;;2.00;99.90;;;;;;5113414;28;20031;-76
2021/11/01 01:59:43;;;;;;;1999.90;999.90;;;2.00;99.90;;;;;;5094894;28;20087;-76
2021/11/01 02:02:09;;;;;;;1999.90;999.90;;;2.00;99.90;;;;;;5113283;28;20051;-76
2021/11/01 02:04:35;;;;;;;1999.90;999.90;;;2.10;99.90;;;;;;5113218;28;20495;-79
2021/11/01 02:07:18;;;;;;;1999.90;999.90;;;2.10;99.90;;;;;;5095033;28;20028;-78
2021/11/01 02:09:46;;;;;;;1999.90;999.90;;;2.10;99.90;;;;;;5113087;28;20046;-76
2021/11/01 02:12:28;;;;;;;1999.90;999.90;;;2.20;99.90;;;;;;5113141;28;20027;-76
2021/11/01 02:14:58;;;;;;;1999.90;999.90;;;2.10;99.90;;;;;;5094887;28;20093;-76
2021/11/01 02:17:29;;;;;;;1999.90;999.90;;;2.10;99.90;;;;;;5094866;28;20035;-77
2021/11/01 02:20:03;;;;;;;1999.90;999.90;;;2.20;99.90;;;;;;5113267;28;20068;-77
2021/11/01 02:23:02;;;;;;;1999.90;999.90;;;2.10;99.90;;;;;;5113112;28;20427;-76
2021/11/01 02:25:40;;;;;;;1999.90;999.90;;;2.10;99.90;;;;;;5112842;28;20464;-76
2021/11/01 02:28:09;;;;;;;1999.90;999.90;;;2.20;99.90;;;;;;5093826;28;20015;-76
2021/11/01 02:30:38;;;;;;;1999.90;999.90;;;2.20;99.90;;;;;;5094725;28;20490;-78
2021/11/01 02:33:06;;;;;;;1999.90;999.90;;;2.10;99.90;;;;;;5112882;28;20058;-77
2021/11/01 02:35:32;;;;;;;1999.90;999.90;;;2.20;99.90;;;;;;5112762;28;20024;-78
2021/11/01 02:37:58;;;;;;;1999.90;999.90;;;2.20;99.90;;;;;;5094611;28;20438;-77
2021/11/01 02:40:29;;;;;;;1999.90;999.90;;;2.20;99.90;;;;;;5112954;28;20027;-77
2021/11/01 02:42:55;;;;;;;1999.90;999.90;;;2.20;99.90;;;;;;5112837;28;20387;-76
2021/11/01 02:45:21;;;;;;;1999.90;999.90;;;2.20;99.90;;;;;;5112684;28;20035;-76
2021/11/01 02:47:47;;;;;;;1999.90;999.90;;;2.10;99.90;;;;;;5112609;28;20024;-77
2021/11/01 02:50:15;;;;;;;1999.90;999.90;;;2.20;99.90;;;;;;5112421;28;20051;-77
2021/11/01 02:52:41;;;;;;;1999.90;999.90;;;2.20;99.90;;;;;;5094440;28;20020;-78
2021/11/01 02:55:08;;;;;;;1999.90;999.90;;;2.10;99.90;;;;;;5112900;28;20080;-76
2021/11/01 02:57:35;;;;;;;1999.90;999.90;;;2.20;99.90;;;;;;5112657;28;20027;-76
2021/11/01 03:00:02;;;;;;;1999.90;999.90;;;2.20;99.90;;;;;;5112674;28;20511;-76
2021/11/01 03:02:28;;;;;;;1999.90;999.90;;;2.20;99.90;;;;;;5112830;28;20054;-75
2021/11/01 03:04:53;;;;;;;1999.90;999.90;;;2.20;99.90;;;;;;5094524;28;20058;-76
2021/11/01 03:07:22;;;;;;;1999.90;999.90;;;2.30;99.90;;;;;;5112567;28;20121;-76
2021/11/01 03:09:48;;;;;;;1999.90;999.90;;;2.20;99.90;;;;;;5094173;28;20035;-77
2021/11/01 03:12:17;;;;;;;1999.90;999.90;;;2.20;99.90;;;;;;5094279;28;20090;-76
2021/11/01 03:14:48;;;;;;;1999.90;999.90;;;2.20;99.90;;;;;;5094185;28;20478;-78
2021/11/01 03:17:18;;;;;;;1999.90;999.90;;;2.20;99.90;;;;;;5093926;28;20027;-76
2021/11/01 03:19:49;;;;;;;1999.90;999.90;;;2.20;99.90;;;;;;5112557;28;20485;-78
2021/11/01 03:22:17;;;;;;;1999.90;999.90;;;2.20;99.90;;;;;;5094243;28;20115;-77
2021/11/01 03:24:46;;;;;;;1999.90;999.90;;;2.10;99.90;;;;;;5093956;28;20023;-78
2021/11/01 03:27:17;;;;;;;1999.90;999.90;;;2.20;99.90;;;;;;5112249;28;20019;-77
2021/11/01 03:29:45;;;;;;;1999.90;999.90;;;2.20;99.90;;;;;;5093806;28;20482;-78
2021/11/01 03:32:12;;;;;;;1999.90;999.90;;;2.10;99.90;;;;;;5093818;28;20023;-77
2021/11/01 03:34:40;;;;;;;1999.90;999.90;;;2.10;99.90;;;;;;5112302;28;20043;-76
2021/11/01 03:37:11;;;;;;;1999.90;999.90;;;2.10;99.90;;;;;;5094067;28;20032;-76
2021/11/01 03:39:41;;;;;;;1999.90;999.90;;;2.00;99.90;;;;;;5094517;28;20020;-76
2021/11/01 03:42:08;;;;;;;1999.90;999.90;;;2.10;99.90;;;;;;5097881;28;20410;-76
2021/11/01 03:44:38;;;;;;;1999.90;999.90;;;2.10;99.90;;;;;;5097801;28;20053;-76
2021/11/01 03:47:06;;;;;;;1999.90;999.90;;;2.10;99.90;;;;;;5115957;28;20023;-78
2021/11/01 03:49:36;;;;;;;1999.90;999.90;;;2.10;99.90;;;;;;5115752;28;20058;-78
2021/11/01 03:52:16;;;;;;;1999.90;999.90;;;2.20;99.90;;;;;;5116032;28;20364;-78
2021/11/01 03:54:43;;;;;;;1999.90;999.90;;;2.10;99.90;;;;;;5097658;28;20032;-77
2021/11/01 03:57:10;;;;;;;1999.90;999.90;;;2.10;99.90;;;;;;5097658;28;20038;-76
2021/11/01 03:59:39;;;;;;;1999.90;999.90;;;2.10;99.90;;;;;;5116000;27;20144;-76
2021/11/01 04:02:12;;;;;;;1999.90;999.90;;;2.00;99.90;;;;;;5097477;28;20415;-76
2021/11/01 04:04:38;;;;;;;1999.90;999.90;;;2.00;99.90;;;;;;5097246;28;20022;-78
2021/11/01 04:07:04;;;;;;;1999.90;999.90;;;1.90;99.90;;;;;;5097314;28;20371;-76
2021/11/01 04:09:30;;;;;;;1999.90;999.90;;;2.00;99.90;;;;;;5115494;28;20363;-78
2021/11/01 04:11:56;;;;;;;1999.90;999.90;;;2.00;99.90;;;;;;5097263;28;20356;-76
2021/11/01 04:14:23;;;;;;;1999.90;999.90;;;1.90;99.90;;;;;;5097180;28;20494;-78
2021/11/01 04:16:55;;;;;;;1999.90;999.90;;;1.90;99.90;;;;;;5115396;28;20016;-77
2021/11/01 04:19:33;;;;;;;1999.90;999.90;;;1.90;99.90;;;;;;5115464;28;20035;-78
2021/11/01 04:21:59;;;;;;;1999.90;999.90;;;2.00;99.90;;;;;;5097043;28;20402;-77
2021/11/01 04:24:28;;;;;;;1999.90;999.90;;;1.90;99.90;;;;;;5096952;28;20080;-79
2021/11/01 04:26:54;;;;;;;1999.90;999.90;;;1.90;99.90;;;;;;5115220;28;20019;-78
2021/11/01 04:29:20;;;;;;;1999.90;999.90;;;1.90;99.90;;;;;;5096874;28;20085;-78
2021/11/01 04:31:53;;;;;;;1999.90;999.90;;;1.90;99.90;;;;;;5096878;28;20114;-78
2021/11/01 04:34:29;;;;;;;1999.90;999.90;;;1.90;99.90;;;;;;5096751;28;20027;-76
2021/11/01 04:36:56;;;;;;;;;;;1.90;99.90;;;;;;5115429;28;20524;-78
2021/11/01 04:52:53;;;;;;;1999.90;999.90;;;1.90;99.90;;;;;;5115182;28;20493;-78
2021/11/01 04:55:19;;;;;;;1999.90;999.90;;;1.80;99.90;;;;;;5114750;28;20084;-78
2021/11/01 04:57:45;;;;;;;1999.90;999.90;;;1.80;99.90;;;;;;5114536;28;20023;-78
2021/11/01 05:00:12;;;;;;;1999.90;999.90;;;1.90;99.90;;;;;;5096620;28;20076;-78
2021/11/01 05:02:41;;;;;;;1999.90;999.90;;;2.00;99.90;;;;;;5114618;28;20019;-77
2021/11/01 05:05:07;;;;;;;1999.90;999.90;;;1.90;99.90;;;;;;5096170;28;20050;-78
2021/11/01 05:07:33;;;;;;;1999.90;999.90;;;2.00;99.90;;;;;;5096016;28;20035;-79
2021/11/01 05:10:03;;;;;;;1999.90;999.90;;;1.90;99.90;;;;;;5114450;28;20057;-77
2021/11/01 05:12:36;;;;;;;1999.90;999.90;;;1.80;99.90;;;;;;5114346;28;20024;-80
2021/11/01 05:25:19;;;;;;;1999.90;999.90;;;1.70;99.90;;;;;;5114026;28;20114;-79
2021/11/01 05:35:31;;;;;;;1999.90;999.90;;;1.80;99.90;;;;;;5113962;28;20038;-78
2021/11/01 05:37:56;;;;;;;1999.90;999.90;;;1.80;99.90;;;;;;5113728;28;20028;-77
2021/11/01 05:40:22;;;;;;;1999.90;999.90;;;1.70;99.90;;;;;;5113517;28;20534;-76
2021/11/01 05:42:48;;;;;;;1999.90;999.90;;;1.80;99.90;;;;;;5113652;28;20023;-78
2021/11/01 05:45:14;;;;;;;1999.90;999.90;;;1.80;99.90;;;;;;5113452;28;20016;-76
2021/11/01 05:47:44;;;;;;;1999.90;999.90;;;1.80;99.90;;;;;;5113307;28;20035;-78
2021/11/01 05:50:10;;;;;;;1999.90;999.90;;;1.70;99.90;;;;;;5095047;28;20055;-76
2021/11/01 05:52:36;;;;;;;1999.90;999.90;;;1.80;99.90;;;;;;5113566;28;20044;-79
2021/11/01 05:55:16;;;;;;;1999.90;999.90;;;1.90;99.90;;;;;;5095114;28;20023;-77
2021/11/01 05:58:06;;;;;;;1999.90;999.90;;;1.90;99.90;;;;;;5096291;28;20019;-75
2021/11/01 06:08:26;;;;;;;1999.90;999.90;;;2.10;99.90;;;;;;5113279;28;20058;-79
2021/11/01 06:13:26;;;;;;;1999.90;999.90;;;2.10;99.90;;;;;;5113099;28;20419;-79
2021/11/01 06:13:37;;;;;;;1999.90;999.90;;;2.10;99.90;;;;;;5113215;28;20352;-77
2021/11/01 06:16:03;;;;;;;1999.90;999.90;;;2.20;99.90;;;;;;5112756;28;20023;-78
2021/11/01 06:18:36;;;;;;;1999.90;999.90;;;2.10;99.90;;;;;;5115118;28;20106;-77
2021/11/01 06:21:04;;;;;;;1999.90;999.90;;;2.00;99.90;;;;;;5094740;28;20058;-75
2021/11/01 06:23:31;;;;;;;1999.90;999.90;;;2.10;99.90;;;;;;5113082;28;20026;-75
2021/11/01 06:25:57;;;;;;;1999.90;999.90;;;2.10;99.90;;;;;;5094707;28;20122;-75
2021/11/01 06:28:23;;;;;;;1999.90;999.90;;;2.00;99.90;;;;;;5112945;28;20095;-75
2021/11/01 06:31:11;;;;;;;1999.90;999.90;;;2.00;99.90;;;;;;5112782;28;20494;-76
2021/11/01 06:39:41;;;;;;;1999.90;999.90;;;2.20;99.90;;;;;;5070845;28;20038;-75
2021/11/01 06:44:30;;;;;;;1999.90;999.90;;;2.30;99.90;;;;;;5112819;28;20141;-75
2021/11/01 06:57:24;;;;;;;1999.90;999.90;;;2.50;99.90;;;;;;5112598;28;20474;-76
2021/11/01 07:19:00;;;;;;;1999.90;999.90;;;2.60;99.90;;;;;;5116711;28;20080;-78
2021/11/01 08:29:10;;;;;;;1999.90;999.90;;;4.30;99.90;;;;;;5115112;28;20031;-78
2021/11/01 08:37:20;;;;;;;1999.90;999.90;;;4.50;99.90;;;;;;5115272;28;20047;-81
2021/11/01 08:48:05;;;;;;;1999.90;999.90;;;4.90;99.90;;;;;;5114806;28;20081;-79
2021/11/01 08:51:04;;;;;;;1999.90;999.90;;;5.00;99.90;;;;;;5096162;28;20055;-80
2021/11/01 09:04:32;;;;;;;1999.90;999.90;;;5.40;99.90;;;;;;5081239;28;20043;-78
2021/11/01 09:20:35;;;;;;;1999.90;999.90;;;5.80;99.90;;;;;;5075726;28;20020;-76
2021/11/01 09:25:54;;;;;;;1999.90;999.90;;;5.80;99.90;;;;;;5114024;28;20524;-78
2021/11/01 09:36:34;;;;;;;;;;;6.10;99.90;;;;;;5114800;28;20114;-81
2021/11/01 09:39:06;;;;;;;1999.90;999.90;;;6.20;99.90;;;;;;5095838;28;19907;-80
2021/11/01 09:41:33;;;;;;;1999.90;999.90;;;6.30;99.90;;;;;;5095884;28;20424;-82
2021/11/01 09:44:00;;;;;;;1999.90;999.90;;;6.40;99.90;;;;;;5096024;28;20031;-77
2021/11/01 09:46:29;;;;;;;1999.90;999.90;;;6.50;99.90;;;;;;5113275;28;20102;-80
2021/11/01 09:49:13;;;;;;;1999.90;999.90;;;6.50;99.90;;;;;;5094944;28;20130;-78
2021/11/01 09:51:39;;;;;;;1999.90;999.90;;;6.60;99.90;;;;;;5095374;28;20088;-78
2021/11/01 09:54:07;;;;;;;1999.90;999.90;;;6.70;99.90;;;;;;5113591;28;20035;-78
2021/11/01 09:56:48;;;;;;;1999.90;999.90;;;6.80;99.90;;;;;;5095060;28;20019;-79
2021/11/01 09:59:15;;;;;;;1999.90;999.90;;;6.80;99.90;;;;;;5095104;28;20028;-78
2021/11/01 10:01:47;;;;;;;1999.90;999.90;;;6.80;99.90;;;;;;5113224;28;20016;-78
2021/11/01 10:04:18;;;;;;;1999.90;999.90;;;6.80;99.90;;;;;;5095290;28;20034;-77
2021/11/01 10:06:44;;;;;;;1999.90;999.90;;;6.90;99.90;;;;;;5113544;28;20015;-77
2021/11/01 10:09:14;;;;;;;1999.90;999.90;;;7.00;99.90;;;;;;5095054;28;20092;-79
2021/11/01 10:11:44;;;;;;;1999.90;999.90;;;7.00;99.90;;;;;;5094940;28;20024;-78
2021/11/01 10:14:12;;;;;;;1999.90;999.90;;;7.00;99.90;;;;;;5113154;28;20019;-78
2021/11/01 10:19:41;;;;;;;1999.90;999.90;;;7.20;99.90;;;;;;5112876;28;20027;-80
2021/11/01 10:22:13;;;;;;;1999.90;999.90;;;7.40;99.90;;;;;;5113192;28;20382;-77
2021/11/01 10:24:41;;;;;;;1999.90;999.90;;;7.50;99.90;;;;;;5113295;28;20093;-78
2021/11/01 10:27:31;;;;;;;1999.90;999.90;;;7.70;99.90;;;;;;5094732;28;20632;-80
2021/11/01 10:30:01;;;;;;;1999.90;999.90;;;7.70;99.90;;;;;;5094822;28;20500;-81
2021/11/01 10:32:38;;;;;;;1999.90;999.90;;;7.80;99.90;;;;;;5095163;28;20122;-79
2021/11/01 10:35:23;;;;;;;1999.90;999.90;;;7.80;99.90;;;;;;5094215;28;20093;-84
2021/11/01 10:38:09;;;;;;;1999.90;999.90;;;7.90;99.90;;;;;;5097541;28;20382;-76
2021/11/01 10:40:37;;;;;;;1999.90;999.90;;;7.90;99.90;;;;;;5116388;28;20028;-75
2021/11/01 10:43:20;;;;;;;1999.90;999.90;;;7.90;99.90;;;;;;5113221;28;20090;-80
2021/11/01 10:46:21;;;;;;;1999.90;999.90;;;8.00;99.90;;;;;;5095063;28;20106;-74
2021/11/01 10:57:25;;;;;;;1999.90;999.90;;;8.30;99.90;;;;;;5112676;28;20114;-76
2021/11/01 11:13:24;;;;;;;1999.90;999.90;;;8.90;99.90;;;;;;5112268;28;20031;-74
2021/11/01 11:15:56;;;;;;;1999.90;999.90;;;9.10;99.90;;;;;;5112491;28;20462;-73
2021/11/01 11:29:09;;;;;;;1999.90;999.90;;;9.70;99.90;;;;;;5112237;28;20462;-74
2021/11/01 11:49:04;;;;;;;1999.90;999.90;;;10.40;99.90;;;;;;5112079;28;20078;-74
2021/11/01 11:51:30;;;;;;;1999.90;999.90;;;10.50;99.90;;;;;;5093671;28;20435;-75
2021/11/01 11:54:02;;;;;;;1999.90;999.90;;;10.60;99.90;;;;;;5112063;28;20098;-74
2021/11/01 11:56:37;;;;;;;1999.90;999.90;;;10.70;99.90;;;;;;5112198;28;20015;-74
2021/11/01 11:59:11;;;;;;;1999.90;999.90;;;10.80;99.90;;;;;;5112148;28;20089;-74
2021/11/01 12:01:41;;;;;;;1999.90;999.90;;;10.80;99.90;;;;;;5096089;28;20032;-74
2021/11/01 12:04:33;;;;;;;1999.90;999.90;;;10.90;99.90;;;;;;5115465;28;20023;-74
2021/11/01 12:07:02;;;;;;;1999.90;999.90;;;11.00;99.90;;;;;;5115706;28;20532;-76
2021/11/01 12:09:49;;;;;;;1999.90;999.90;;;11.10;99.90;;;;;;5115546;28;20036;-75
2021/11/01 12:17:19;;;;;;;1999.90;999.90;;;11.20;99.90;;;;;;5115548;28;20020;-74
2021/11/01 12:19:45;;;;;;;1999.90;999.90;;;11.30;99.90;;;;;;5115516;28;20040;-74
2021/11/01 12:22:21;;;;;;;1999.90;999.90;;;11.30;99.90;;;;;;5115544;28;20051;-75
2021/11/01 12:24:49;;;;;;;1999.90;999.90;;;11.40;99.90;;;;;;5115462;28;20027;-77
2021/11/01 12:27:17;;;;;;;1999.90;999.90;;;11.50;99.90;;;;;;5115440;28;20023;-76
2021/11/01 12:29:43;;;;;;;1999.90;999.90;;;11.60;99.90;;;;;;5114910;28;20038;-73
2021/11/01 12:32:12;;;;;;;1999.90;999.90;;;11.70;99.90;;;;;;5115529;28;20015;-74
2021/11/01 12:37:29;;;;;;;1999.90;999.90;;;12.00;99.90;;;;;;5115460;28;20024;-74
2021/11/01 12:40:11;;;;;;;1999.90;999.90;;;12.10;99.90;;;;;;5115353;28;20024;-74
2021/11/01 12:42:44;;;;;;;1999.90;999.90;;;12.20;99.90;;;;;;5115410;28;20062;-76
2021/11/01 12:58:59;;;;;;;1999.90;999.90;;;12.80;99.90;;;;;;5115109;28;20038;-73
2021/11/01 13:01:29;;;;;;;1999.90;999.90;;;12.70;99.90;;;;;;5096386;28;20502;-75
2021/11/01 13:04:16;;;;;;;1999.90;999.90;;;12.70;99.90;;;;;;5095751;28;20043;-74
2021/11/01 13:09:30;;;;;;;1999.90;999.90;;;12.60;99.90;;;;;;5114384;28;20455;-77
2021/11/01 13:15:04;;;;;;;1999.90;999.90;;;12.40;99.90;;;;;;5114492;28;20371;-75
2021/11/01 13:20:21;;;;;;;1999.90;999.90;;;12.30;99.90;;;;;;5114650;28;20046;-75
2021/11/01 13:22:51;;;;;;;1999.90;999.90;;;12.20;99.90;;;;;;5114032;28;20478;-73
2021/11/01 13:25:29;;;;;;;1999.90;999.90;;;12.30;99.90;;;;;;5113996;28;20023;-76
2021/11/01 13:37:24;;;;;;;1999.90;999.90;;;12.50;99.90;;;;;;5113659;28;20088;-75
2021/11/01 13:40:09;;;;;;;1999.90;999.90;;;12.60;99.90;;;;;;5113874;28;20026;-77
2021/11/01 13:42:37;;;;;;;1999.90;999.90;;;12.60;99.90;;;;;;5113153;28;20031;-74
2021/11/01 13:45:14;;;;;;;1999.90;999.90;;;12.60;99.90;;;;;;5113506;28;20016;-76
2021/11/01 13:47:46;;;;;;;1999.90;999.90;;;12.70;99.90;;;;;;5113652;28;20024;-76
2021/11/01 13:50:13;;;;;;;1999.90;999.90;;;12.70;99.90;;;;;;5095185;28;20048;-75
2021/11/01 13:52:41;;;;;;;1999.90;999.90;;;12.70;99.90;;;;;;5113699;28;20065;-75
2021/11/01 13:58:14;;;;;;;1999.90;999.90;;;12.70;99.90;;;;;;5113604;28;20024;-74
2021/11/01 14:10:49;;;;;;;1999.90;999.90;;;12.50;99.90;;;;;;5113311;28;20080;-75
2021/11/01 14:11:56;;;;;;;1999.90;999.90;;;12.30;99.90;;;;;;5111656;28;20043;-74
2021/11/01 14:33:11;;;;;;;1999.90;999.90;;;12.10;99.90;;;;;;5100515;28;20043;-78
2021/11/01 15:00:27;;;;;;;1999.90;999.90;;;11.30;99.90;;;;;;5093726;28;20515;-78
2021/11/01 15:03:18;;;;;;;1999.90;999.90;;;11.20;99.90;;;;;;5081186;28;20116;-79
2021/11/01 15:13:43;;;;;;;1999.90;999.90;;;10.90;99.90;;;;;;5098254;28;20067;-78
2021/11/01 15:16:35;;;;;;;1999.90;999.90;;;10.90;99.90;;;;;;5094117;28;20080;-72
2021/11/01 15:19:24;;;;;;;1999.90;999.90;;;10.90;99.90;;;;;;5112422;28;20024;-72
2021/11/01 15:31:00;;;;;;;1999.90;999.90;;;10.60;99.90;;;;;;5112208;28;20119;-74
2021/11/01 16:18:18;;;;;;;1999.90;999.90;;;9.70;99.90;;;;;;5115541;28;20454;-74
2021/11/01 16:20:47;;;;;;;1999.90;999.90;;;9.70;99.90;;;;;;5115297;28;20030;-76
2021/11/01 16:23:33;;;;;;;1999.90;999.90;;;9.70;99.90;;;;;;5115525;28;20466;-75
2021/11/01 16:26:04;;;;;;;1999.90;999.90;;;9.70;99.90;;;;;;5115394;28;20497;-75
2021/11/01 16:28:32;;;;;;;1999.90;999.90;;;9.70;99.90;;;;;;5096831;28;20027;-78
2021/11/01 16:34:07;;;;;;;1999.90;999.90;;;9.70;99.90;;;;;;5081583;28;20102;-80
2021/11/01 16:39:23;;;;;;;1999.90;999.90;;;9.60;99.90;;;;;;5115097;28;20042;-74
2021/11/01 16:41:49;;;;;;;1999.90;999.90;;;9.60;99.90;;;;;;5114965;28;20455;-75
2021/11/01 16:44:30;;;;;;;1999.90;999.90;;;9.60;99.90;;;;;;5096376;28;20026;-75
2021/11/01 16:46:57;;;;;;;1999.90;999.90;;;9.60;99.90;;;;;;5096107;28;20065;-76
2021/11/01 16:49:24;;;;;;;1999.90;999.90;;;9.60;99.90;;;;;;5114516;28;20052;-76
2021/11/01 16:51:51;;;;;;;1999.90;999.90;;;9.60;99.90;;;;;;5114877;28;20015;-75
2021/11/01 16:54:21;;;;;;;1999.90;999.90;;;9.60;99.90;;;;;;5096510;28;20031;-76
2021/11/01 16:56:58;;;;;;;1999.90;999.90;;;9.50;99.90;;;;;;5114716;28;20020;-75
2021/11/01 16:59:46;;;;;;;1999.90;999.90;;;9.50;99.90;;;;;;5114806;28;20106;-75
2021/11/01 17:04:50;;;;;;;1999.90;999.90;;;9.40;99.90;;;;;;5114525;28;20455;-75
2021/11/01 17:10:13;;;;;;;1999.90;999.90;;;9.40;99.90;;;;;;5114467;28;20031;-74
2021/11/01 17:28:42;;;;;;;1999.90;999.90;;;9.40;99.90;;;;;;5114214;28;20024;-77
2021/11/01 18:36:32;;;;;;;1999.90;999.90;;;9.30;99.90;;;;;;5092552;28;20059;-76
2021/11/01 18:40:25;;;;;;;1999.90;999.90;;;9.20;99.90;;;;;;5092804;28;20517;-78
2021/11/01 18:50:58;;;;;;;1999.90;999.90;;;9.20;99.90;;;;;;5092262;28;20046;-76
2021/11/01 18:53:54;;;;;;;1999.90;999.90;;;9.10;99.90;;;;;;5092385;28;20483;-77
2021/11/01 18:56:29;;;;;;;1999.90;999.90;;;9.20;99.90;;;;;;5088915;28;20167;-77
2021/11/01 18:59:00;;;;;;;1999.90;999.90;;;9.20;99.90;;;;;;5091901;28;20021;-77
2021/11/01 19:01:26;;;;;;;1999.90;999.90;;;9.20;99.90;;;;;;5092000;28;20260;-77
2021/11/01 19:03:55;;;;;;;1999.90;999.90;;;9.20;99.90;;;;;;5092236;28;20023;-76
2021/11/01 19:06:35;;;;;;;1999.90;999.90;;;9.10;99.90;;;;;;5091757;28;20024;-77
2021/11/01 20:04:48;;;;;;;1999.90;999.90;;;9.10;99.90;;;;;;5095586;28;20038;-77
2021/11/01 20:16:24;;;;;;;1999.90;999.90;;;9.10;99.90;;;;;;5095075;28;20059;-77
2021/11/01 21:25:54;;;;;;;1999.90;999.90;;;9.00;99.90;;;;;;5094088;28;20035;-78
2021/11/01 21:28:21;;;;;;;1999.90;999.90;;;9.00;99.90;;;;;;5075846;28;20124;-78
2021/11/01 21:30:47;;;;;;;1999.90;999.90;;;9.00;99.90;;;;;;5093600;28;20472;-78
2021/11/01 21:33:21;;;;;;;1999.90;999.90;;;8.90;99.90;;;;;;5093387;28;20043;-78
2021/11/01 21:35:50;;;;;;;1999.90;999.90;;;9.00;99.90;;;;;;5093403;28;20020;-77
2021/11/01 21:38:16;;;;;;;1999.90;999.90;;;9.00;99.90;;;;;;5093777;28;20020;-78
2021/11/01 21:40:51;;;;;;;1999.90;999.90;;;9.00;99.90;;;;;;5093420;28;20482;-76
2021/11/01 21:43:17;;;;;;;1999.90;999.90;;;8.90;99.90;;;;;;5093541;28;20017;-77
2021/11/01 21:45:44;;;;;;;1999.90;999.90;;;8.90;99.90;;;;;;5093460;28;20035;-78
2021/11/01 21:48:09;;;;;;;1999.90;999.90;;;8.90;99.90;;;;;;5093197;28;20081;-78
2021/11/01 21:50:35;;;;;;;1999.90;999.90;;;8.80;99.90;;;;;;5093358;28;20040;-76
2021/11/01 21:53:03;;;;;;;1999.90;999.90;;;8.80;99.90;;;;;;5093543;28;20055;-77
2021/11/01 21:55:30;;;;;;;1999.90;999.90;;;8.80;99.90;;;;;;5093223;28;20026;-76
2021/11/01 21:58:03;;;;;;;1999.90;999.90;;;8.90;99.90;;;;;;5075172;28;20017;-77
2021/11/01 22:00:45;;;;;;;1999.90;999.90;;;8.80;99.90;;;;;;5074946;28;20028;-77
2021/11/01 22:17:05;;;;;;;1999.90;999.90;;;8.80;99.90;;;;;;5093434;28;21125;-78
2021/11/01 22:25:04;;;;;;;1999.90;999.90;;;8.80;99.90;;;;;;5093120;28;20432;-76
2021/11/01 22:41:38;;;;;;;1999.90;999.90;;;8.80;99.90;;;;;;5092382;28;20035;-76
2021/11/01 22:57:29;;;;;;;1999.90;999.90;;;8.80;99.90;;;;;;5092597;28;20054;-77
2021/11/01 22:59:55;;;;;;;1999.90;999.90;;;8.80;99.90;;;;;;5074018;28;20031;-76
2021/11/01 23:02:21;;;;;;;1999.90;999.90;;;8.80;99.90;;;;;;5074088;28;20016;-76
2021/11/01 23:31:52;;;;;;;1999.90;999.90;;;8.80;99.90;;;;;;5091895;28;20519;-76
2021/11/01 23:34:19;;;;;;;1999.90;999.90;;;8.70;99.90;;;;;;5091993;28;20048;-77
2021/11/01 23:36:45;;;;;;;1999.90;999.90;;;8.70;99.90;;;;;;5092036;28;20024;-76
2021/11/01 23:39:14;;;;;;;1999.90;999.90;;;8.70;99.90;;;;;;5091962;28;20028;-77
2021/11/01 23:41:45;;;;;;;1999.90;999.90;;;8.60;99.90;;;;;;5073821;28;20028;-76
2021/11/01 23:44:11;;;;;;;1999.90;999.90;;;8.70;99.90;;;;;;5073734;28;20026;-78
2021/11/01 23:46:38;;;;;;;1999.90;999.90;;;8.80;99.90;;;;;;5073699;28;20039;-78
2021/11/01 23:49:04;;;;;;;1999.90;999.90;;;8.80;99.90;;;;;;5058870;28;20119;-78
2021/11/01 23:51:31;;;;;;;1999.90;999.90;;;8.80;99.90;;;;;;5071710;28;20025;-76
2021/11/01 23:56:26;;;;;;;1999.90;999.90;;;8.80;99.90;;;;;;5073207;28;20028;-77
2021/11/01 23:58:52;;;;;;;1999.90;999.90;;;8.80;99.90;;;;;;5075245;28;20412;-76
